Main page
METAR-TAF:

Airports :

Mexicali, Mexico

General Rodolfo Sánchez Taboada International Airport

latitude: 32-37-50N, longitude: 115-14-30W, elevation: 22 m

Current weather observation

The report was made 1 hour and 9 minutes ago, at 03:41 UTC
Wind 12 kt from the Southeast
Temperature 34°C
Humidity 39%
Pressure 1005 hPa
Visibility: 11.3 km
Scattered clouds at a height of 20000 ft

METAR: MMML 240341Z 14012KT 7SM SCT200 34/18 A2968 RMK 8/002 HZY

Time: 23:50 (04:50 UTC)

Forecast

The report was made 5 hours and 52 minutes ago, at 22:58 UTC
Forecast valid from 23 at 23 UTC to 24 at 18 UTC
Wind 20 kt from the South/Southeast
Visibility: 6.4 km
Broken clouds at a height of 20000 ft
Blowing dust
From 24 at 0100 UTC
Wind 12 kt from the South
Visibility: 10 km
Clear sky

TAF: MMML 232258Z 2323/2418 15020KT 4SM BLDU BKN200 FM240100 18012KT P6SM SKC

METAR-TAF

Weather observations and forecasts of more than 4000 airports (METAR and TAF reports).

The available stations are represented by yellow and red dots on the map.

Hover mouse over dot to see the name of the station.

Then click to see weather observations and forecasts.

To change the map : click on the green buttons with a black cross to zoom in, on the green button with a dash to zoom out, or on the green arrows for adjacent maps.


METAR-TAF: